Time;durP1;ratioP1;P1;durP2;ratioP2;P2;SDS_P1;SDS_P2;PMS_P1;PMS_P2;Temp;Humidity;BMP_temperature;BMP_pressure;BME280_temperature;BME280_humidity;BME280_pressure;Samples;Min_cycle;Max_cycle;Signal;HPM_P1;HPM_P2
2021/01/12 00:00:37;;;;;;;15.88;4.60;;;7.00;99.90;;;;;;5104445;27;20399;-74
2021/01/12 00:03:04;;;;;;;12.75;4.82;;;7.00;99.90;;;;;;5109509;28;20099;-75
2021/01/12 00:05:30;;;;;;;16.98;5.82;;;7.00;99.90;;;;;;5112952;27;20119;-71
2021/01/12 00:07:57;;;;;;;15.63;5.30;;;7.00;99.90;;;;;;5112529;27;20090;-78
2021/01/12 00:10:24;;;;;;;16.02;6.38;;;7.00;99.90;;;;;;5112306;27;20028;-74
2021/01/12 00:12:51;;;;;;;14.68;6.32;;;7.00;99.90;;;;;;5106271;28;20032;-75
2021/01/12 00:15:17;;;;;;;17.63;6.50;;;7.10;99.90;;;;;;5102154;28;20502;-76
2021/01/12 00:17:42;;;;;;;20.63;7.05;;;7.10;99.90;;;;;;5107761;28;20044;-78
2021/01/12 00:20:10;;;;;;;15.95;5.53;;;7.00;99.90;;;;;;5116444;28;20465;-76
2021/01/12 00:22:36;;;;;;;16.00;6.75;;;7.00;99.90;;;;;;5122191;28;20043;-78
2021/01/12 00:25:05;;;;;;;19.05;5.93;;;7.10;99.90;;;;;;5118913;28;20384;-75
2021/01/12 00:27:30;;;;;;;11.68;5.95;;;7.00;99.90;;;;;;5115326;28;20035;-77
2021/01/12 00:29:56;;;;;;;11.90;5.07;;;7.00;99.90;;;;;;5110113;28;20039;-75
2021/01/12 00:32:28;;;;;;;22.95;7.00;;;7.10;99.90;;;;;;5101622;28;20032;-74
2021/01/12 00:34:57;;;;;;;12.63;5.82;;;7.10;99.90;;;;;;5104244;28;20041;-75
2021/01/12 00:37:25;;;;;;;14.75;7.03;;;7.10;99.90;;;;;;5108316;28;20142;-75
2021/01/12 00:39:51;;;;;;;13.98;7.57;;;7.10;99.90;;;;;;5105322;28;20077;-74
2021/01/12 00:42:17;;;;;;;13.48;7.90;;;7.00;99.90;;;;;;5084199;28;20059;-74
2021/01/12 00:44:43;;;;;;;18.15;7.28;;;7.10;99.90;;;;;;5098734;28;20055;-77
2021/01/12 00:47:09;;;;;;;15.35;7.65;;;7.10;99.90;;;;;;5108980;28;20054;-74
2021/01/12 00:49:35;;;;;;;19.00;7.45;;;7.10;99.90;;;;;;5114477;27;20031;-73
2021/01/12 00:52:01;;;;;;;18.00;6.47;;;7.10;99.90;;;;;;5112290;27;20069;-73
2021/01/12 00:54:27;;;;;;;21.77;6.93;;;7.10;99.90;;;;;;5116314;27;20100;-75
2021/01/12 00:56:55;;;;;;;15.30;6.03;;;7.10;99.90;;;;;;5119051;27;20129;-76
2021/01/12 00:59:21;;;;;;;14.68;6.03;;;7.10;99.90;;;;;;5108423;27;20042;-75
2021/01/12 01:01:48;;;;;;;20.38;5.80;;;7.10;99.90;;;;;;5117977;27;20400;-76
2021/01/12 01:04:15;;;;;;;21.33;5.38;;;7.10;99.90;;;;;;5115672;27;20023;-76
2021/01/12 01:06:42;;;;;;;20.52;5.07;;;7.20;99.90;;;;;;5117853;28;20073;-73
2021/01/12 01:09:10;;;;;;;18.00;5.28;;;7.20;99.90;;;;;;5131031;27;20071;-77
2021/01/12 01:11:43;;;;;;;17.88;5.10;;;7.10;99.90;;;;;;5125405;27;20023;-74
2021/01/12 01:14:09;;;;;;;22.42;5.85;;;7.20;99.90;;;;;;5118146;28;20342;-73
2021/01/12 01:16:35;;;;;;;24.15;5.10;;;7.20;99.90;;;;;;5122048;28;20131;-75
2021/01/12 01:19:00;;;;;;;24.00;4.55;;;7.20;99.90;;;;;;5119725;28;20024;-72
2021/01/12 01:21:29;;;;;;;25.00;4.53;;;7.20;99.90;;;;;;5117779;28;20023;-74
2021/01/12 01:23:54;;;;;;;26.60;5.72;;;7.20;99.90;;;;;;5112766;28;20121;-71
2021/01/12 01:26:21;;;;;;;27.52;4.97;;;7.20;99.90;;;;;;5110056;28;20156;-76
2021/01/12 01:28:47;;;;;;;18.00;4.78;;;7.20;99.90;;;;;;5105567;28;20038;-76
2021/01/12 01:31:12;;;;;;;26.25;6.05;;;7.20;99.90;;;;;;5102344;28;20032;-73
2021/01/12 01:33:39;;;;;;;28.48;4.72;;;7.20;99.90;;;;;;5104507;28;20044;-73
2021/01/12 01:36:11;;;;;;;34.80;5.75;;;7.20;99.90;;;;;;5102616;28;20040;-73
2021/01/12 01:38:37;;;;;;;30.02;5.20;;;7.20;99.90;;;;;;5091626;28;20603;-73
2021/01/12 01:41:06;;;;;;;14.80;4.25;;;7.20;99.90;;;;;;5089398;28;20036;-75
2021/01/12 01:43:33;;;;;;;24.00;4.82;;;7.20;99.90;;;;;;5107745;28;20118;-72
2021/01/12 01:45:59;;;;;;;21.63;4.57;;;7.20;99.90;;;;;;5109036;28;20019;-74
2021/01/12 01:48:25;;;;;;;21.75;5.28;;;7.20;99.90;;;;;;5087823;28;20171;-74
2021/01/12 01:50:52;;;;;;;25.45;4.82;;;7.20;99.90;;;;;;5103080;28;20023;-74
2021/01/12 01:53:19;;;;;;;24.00;4.90;;;7.30;99.90;;;;;;5102619;28;20031;-73
2021/01/12 01:55:51;;;;;;;32.05;4.85;;;7.20;99.90;;;;;;5105761;28;20482;-73
2021/01/12 01:58:16;;;;;;;16.98;4.63;;;7.30;99.90;;;;;;5102660;28;20035;-73
2021/01/12 02:00:45;;;;;;;28.25;5.75;;;7.20;99.90;;;;;;5109173;28;20707;-74
2021/01/12 02:03:13;;;;;;;13.68;3.65;;;7.20;99.90;;;;;;5117315;28;20035;-72
2021/01/12 02:05:50;;;;;;;19.38;5.07;;;7.30;99.90;;;;;;5127365;27;20039;-75
2021/01/12 02:08:24;;;;;;;18.10;4.38;;;7.20;99.90;;;;;;5105310;27;20031;-70
2021/01/12 02:10:53;;;;;;;18.25;4.18;;;7.20;99.90;;;;;;5113845;28;20027;-72
2021/01/12 02:13:25;;;;;;;29.63;4.50;;;7.30;99.90;;;;;;5101902;28;20035;-73
2021/01/12 02:15:57;;;;;;;18.30;4.35;;;7.30;99.90;;;;;;5092377;28;20024;-74
2021/01/12 02:18:23;;;;;;;17.73;3.88;;;7.20;99.90;;;;;;5099771;28;20062;-72
2021/01/12 02:20:49;;;;;;;19.23;4.88;;;7.30;99.90;;;;;;5108663;28;20024;-69
2021/01/12 02:23:39;;;;;;;17.63;4.50;;;7.30;99.90;;;;;;5099062;28;20084;-71
2021/01/12 02:26:05;;;;;;;14.63;3.83;;;7.30;99.90;;;;;;5094184;28;20039;-73
2021/01/12 02:28:30;;;;;;;27.33;4.90;;;7.30;99.90;;;;;;5103431;28;20020;-70
2021/01/12 02:30:57;;;;;;;30.38;4.60;;;7.30;99.90;;;;;;5105941;27;20085;-72
2021/01/12 02:33:23;;;;;;;15.95;4.28;;;7.30;99.90;;;;;;5105401;28;20107;-72
2021/01/12 02:35:53;;;;;;;17.70;4.47;;;7.30;99.90;;;;;;5119910;27;20564;-72
2021/01/12 02:38:19;;;;;;;27.25;5.15;;;7.30;99.90;;;;;;5113312;27;20040;-71
2021/01/12 02:40:46;;;;;;;17.27;4.80;;;7.30;99.90;;;;;;5121064;27;20123;-72
2021/01/12 02:43:13;;;;;;;25.63;4.68;;;7.30;99.90;;;;;;5125620;27;20525;-71
2021/01/12 02:45:39;;;;;;;20.30;4.60;;;7.30;99.90;;;;;;5121570;27;20022;-71
2021/01/12 02:48:05;;;;;;;13.43;4.38;;;7.30;99.90;;;;;;5119447;27;20485;-73
2021/01/12 02:50:33;;;;;;;25.85;4.25;;;7.40;99.90;;;;;;5128689;27;20038;-73
2021/01/12 02:52:59;;;;;;;16.98;4.10;;;7.30;99.90;;;;;;5122810;27;20101;-70
2021/01/12 02:55:25;;;;;;;15.68;4.07;;;7.40;99.90;;;;;;5122515;27;20110;-71
2021/01/12 02:57:50;;;;;;;28.77;5.45;;;7.40;99.90;;;;;;5119164;27;20027;-71
2021/01/12 03:00:17;;;;;;;13.60;4.35;;;7.40;99.90;;;;;;5123517;27;20023;-72
2021/01/12 03:02:42;;;;;;;18.08;4.55;;;7.40;99.90;;;;;;5127762;27;20170;-70
2021/01/12 03:05:10;;;;;;;13.07;4.05;;;7.40;99.90;;;;;;5123828;27;20020;-73
2021/01/12 03:07:37;;;;;;;23.33;4.50;;;7.40;99.90;;;;;;5120559;27;20019;-71
2021/01/12 03:10:06;;;;;;;18.08;4.35;;;7.40;99.90;;;;;;5122722;27;20118;-73
2021/01/12 03:12:35;;;;;;;15.52;3.22;;;7.50;99.90;;;;;;5088371;28;20048;-73
2021/01/12 03:15:00;;;;;;;15.65;4.05;;;7.50;99.90;;;;;;5108771;27;20073;-70
2021/01/12 03:17:26;;;;;;;18.55;4.00;;;7.50;99.90;;;;;;5108538;28;20024;-70
2021/01/12 03:19:51;;;;;;;19.38;4.30;;;7.50;99.90;;;;;;5110566;28;20016;-68
2021/01/12 03:22:18;;;;;;;14.73;4.10;;;7.50;99.90;;;;;;5110886;28;20329;-72
2021/01/12 03:24:44;;;;;;;11.30;3.72;;;7.50;99.90;;;;;;5110170;28;20024;-70
2021/01/12 03:27:10;;;;;;;20.50;4.22;;;7.50;99.90;;;;;;5110407;28;20028;-70
2021/01/12 03:29:35;;;;;;;15.80;3.65;;;7.50;99.90;;;;;;5108870;28;20486;-71
2021/01/12 03:32:01;;;;;;;10.98;4.10;;;7.50;99.90;;;;;;5110451;28;20053;-69
2021/01/12 03:34:27;;;;;;;16.60;3.92;;;7.50;99.90;;;;;;5104153;28;20103;-73
2021/01/12 03:36:54;;;;;;;21.85;3.92;;;7.50;99.90;;;;;;5102701;28;20039;-70
2021/01/12 03:39:21;;;;;;;17.90;4.05;;;7.50;99.90;;;;;;5101823;28;20031;-69
2021/01/12 03:41:47;;;;;;;19.88;4.40;;;7.50;99.90;;;;;;5114803;28;20084;-70
2021/01/12 03:44:13;;;;;;;14.45;4.43;;;7.60;99.90;;;;;;5122478;27;20467;-70
2021/01/12 03:46:38;;;;;;;20.05;4.63;;;7.50;99.90;;;;;;5126196;27;20043;-70
2021/01/12 03:49:06;;;;;;;27.10;4.03;;;7.60;99.90;;;;;;5113201;27;20034;-71
2021/01/12 03:51:31;;;;;;;19.20;3.60;;;7.60;99.90;;;;;;5110437;28;20030;-73
2021/01/12 03:53:57;;;;;;;17.48;3.85;;;7.60;99.90;;;;;;5110065;28;20024;-73
2021/01/12 03:56:22;;;;;;;23.50;3.50;;;7.60;99.90;;;;;;5109395;28;20125;-72
2021/01/12 03:58:48;;;;;;;21.65;4.53;;;7.60;99.90;;;;;;5103695;28;20024;-70
2021/01/12 04:01:15;;;;;;;25.27;4.30;;;7.60;99.90;;;;;;5105339;28;20046;-73
2021/01/12 04:03:42;;;;;;;21.10;4.75;;;7.60;99.90;;;;;;5110210;28;20143;-73
2021/01/12 04:06:14;;;;;;;16.55;3.47;;;7.60;99.90;;;;;;5109461;28;20040;-73
2021/01/12 04:08:45;;;;;;;21.02;3.75;;;7.70;99.90;;;;;;5123125;27;20023;-73
2021/01/12 04:11:12;;;;;;;18.83;4.18;;;7.70;99.90;;;;;;5097585;28;20050;-71
2021/01/12 04:13:38;;;;;;;18.65;3.33;;;7.70;99.90;;;;;;5108061;28;20020;-71
2021/01/12 04:16:04;;;;;;;12.05;3.28;;;7.70;99.90;;;;;;5108232;28;20039;-73
2021/01/12 04:18:29;;;;;;;22.60;3.78;;;7.70;99.90;;;;;;5108822;28;20028;-71
2021/01/12 04:20:56;;;;;;;22.00;3.33;;;7.70;99.90;;;;;;5105087;28;20027;-71
2021/01/12 04:23:22;;;;;;;17.77;3.95;;;7.70;99.90;;;;;;5117094;27;20491;-73
2021/01/12 04:25:48;;;;;;;22.60;3.42;;;7.70;99.90;;;;;;5090012;28;20030;-73
2021/01/12 04:28:14;;;;;;;16.30;3.95;;;7.70;99.90;;;;;;5095608;28;20032;-76
2021/01/12 04:30:39;;;;;;;17.88;3.78;;;7.70;99.90;;;;;;5115406;27;20031;-73
2021/01/12 04:33:05;;;;;;;14.25;3.33;;;7.80;99.90;;;;;;5099858;28;20105;-75
2021/01/12 04:35:30;;;;;;;20.55;4.68;;;7.70;99.90;;;;;;5115581;27;20035;-74
2021/01/12 04:37:56;;;;;;;23.73;4.45;;;7.70;99.90;;;;;;5097798;28;20035;-76
2021/01/12 04:40:22;;;;;;;11.07;3.58;;;7.70;99.90;;;;;;5109997;28;20020;-75
2021/01/12 04:42:48;;;;;;;22.77;3.58;;;7.70;99.90;;;;;;5109700;28;20096;-73
2021/01/12 04:45:13;;;;;;;18.95;3.92;;;7.80;99.90;;;;;;5106828;28;20028;-74
2021/01/12 04:47:39;;;;;;;21.33;4.82;;;7.80;99.90;;;;;;5107835;28;20058;-74
2021/01/12 04:50:05;;;;;;;20.25;3.78;;;7.80;99.90;;;;;;5106450;28;20027;-75
2021/01/12 04:52:49;;;;;;;19.15;4.32;;;7.80;99.90;;;;;;5104054;28;20035;-76
2021/01/12 04:55:20;;;;;;;23.17;3.72;;;7.80;99.90;;;;;;5099212;28;20028;-73
2021/01/12 04:57:46;;;;;;;19.30;3.20;;;7.80;99.90;;;;;;5106530;28;20130;-78
2021/01/12 05:00:19;;;;;;;20.20;4.40;;;7.80;99.90;;;;;;5115474;27;20051;-73
2021/01/12 05:03:01;;;;;;;14.27;3.67;;;7.80;99.90;;;;;;5106008;28;20023;-72
2021/01/12 05:05:31;;;;;;;16.80;3.45;;;7.80;99.90;;;;;;5106000;28;20046;-76
2021/01/12 05:08:11;;;;;;;15.85;3.13;;;7.80;99.90;;;;;;5123859;27;20031;-73
2021/01/12 05:10:41;;;;;;;22.65;3.10;;;7.80;99.90;;;;;;5104534;27;20027;-73
2021/01/12 05:13:09;;;;;;;19.50;3.45;;;7.80;99.90;;;;;;5117576;27;20043;-72
2021/01/12 05:15:46;;;;;;;21.45;3.28;;;7.80;99.90;;;;;;5097795;28;20512;-73
2021/01/12 05:18:16;;;;;;;17.08;3.40;;;7.90;99.90;;;;;;5108553;28;20429;-75
2021/01/12 05:20:49;;;;;;;13.25;2.92;;;7.80;99.90;;;;;;5108818;28;20035;-72
2021/01/12 05:23:24;;;;;;;17.38;3.70;;;7.90;99.90;;;;;;5108153;28;20032;-74
2021/01/12 05:25:52;;;;;;;14.13;3.85;;;7.80;99.90;;;;;;5113537;28;20531;-73
2021/01/12 05:28:18;;;;;;;13.27;3.13;;;7.80;99.90;;;;;;5123307;28;20034;-74
2021/01/12 05:30:47;;;;;;;18.48;3.67;;;7.90;99.90;;;;;;5119076;27;20210;-73
2021/01/12 05:33:20;;;;;;;19.58;4.00;;;7.90;99.90;;;;;;5111990;28;20027;-74
2021/01/12 05:35:49;;;;;;;19.65;3.00;;;7.90;99.90;;;;;;5108809;28;20480;-75
2021/01/12 05:38:30;;;;;;;23.90;3.95;;;7.90;99.90;;;;;;5125466;27;20046;-74
2021/01/12 05:40:59;;;;;;;19.75;3.80;;;7.90;99.90;;;;;;5105013;28;20118;-72
2021/01/12 05:43:36;;;;;;;23.70;3.90;;;7.90;99.90;;;;;;5104546;28;20121;-74
2021/01/12 05:46:10;;;;;;;23.85;5.10;;;7.90;99.90;;;;;;5107890;28;20589;-75
2021/01/12 05:48:37;;;;;;;26.77;3.50;;;7.90;99.90;;;;;;5109618;28;20063;-76
2021/01/12 05:51:07;;;;;;;29.15;3.75;;;8.00;99.90;;;;;;5114441;27;20103;-73
2021/01/12 05:53:46;;;;;;;21.75;3.58;;;8.00;99.90;;;;;;5111085;28;20042;-73
2021/01/12 05:56:23;;;;;;;19.85;3.63;;;8.10;99.90;;;;;;5123485;28;20619;-74
2021/01/12 05:58:51;;;;;;;13.48;2.65;;;8.00;99.90;;;;;;5119116;27;20039;-74
2021/01/12 06:01:46;;;;;;;15.63;3.08;;;8.10;99.90;;;;;;5111179;28;20043;-72
2021/01/12 06:04:18;;;;;;;15.70;3.10;;;8.10;99.90;;;;;;5110398;27;20038;-74
2021/01/12 06:06:46;;;;;;;17.65;2.75;;;8.10;99.90;;;;;;5108937;28;20048;-76
2021/01/12 06:09:13;;;;;;;15.02;3.10;;;8.10;99.90;;;;;;5123047;27;20114;-73
2021/01/12 06:11:40;;;;;;;16.52;2.95;;;8.10;99.90;;;;;;5119205;27;20024;-73
2021/01/12 06:14:14;;;;;;;23.08;3.83;;;8.10;99.90;;;;;;5107480;27;20091;-75
2021/01/12 06:16:45;;;;;;;16.05;3.45;;;8.10;99.90;;;;;;5119124;27;20047;-75
2021/01/12 06:19:34;;;;;;;18.58;2.78;;;8.10;99.90;;;;;;5129155;27;20029;-74
2021/01/12 06:22:18;;;;;;;14.18;2.40;;;8.10;99.90;;;;;;5122004;27;20052;-75
2021/01/12 06:24:49;;;;;;;14.27;2.75;;;8.10;99.90;;;;;;5117900;27;20375;-75
2021/01/12 06:27:17;;;;;;;9.65;2.50;;;8.10;99.90;;;;;;5113583;27;20586;-73
2021/01/12 06:29:49;;;;;;;9.88;2.15;;;8.00;99.90;;;;;;5110691;27;20032;-77
2021/01/12 06:32:22;;;;;;;12.32;2.38;;;8.10;99.90;;;;;;5121488;27;20667;-77
2021/01/12 06:34:55;;;;;;;13.82;3.17;;;8.10;99.90;;;;;;5122775;27;20045;-73
2021/01/12 06:37:25;;;;;;;7.93;2.92;;;8.10;99.90;;;;;;5123568;27;20662;-71
2021/01/12 06:39:54;;;;;;;17.75;3.55;;;8.10;99.90;;;;;;5122576;27;20365;-74
2021/01/12 06:42:26;;;;;;;13.70;3.72;;;8.10;99.90;;;;;;5121552;27;20115;-75
2021/01/12 06:44:53;;;;;;;21.45;4.45;;;8.10;99.90;;;;;;5138224;27;20015;-73
2021/01/12 06:47:23;;;;;;;14.45;3.85;;;8.10;99.90;;;;;;5134827;27;20038;-75
2021/01/12 06:49:49;;;;;;;19.45;4.38;;;8.10;99.90;;;;;;5127265;27;20027;-75
2021/01/12 06:52:15;;;;;;;17.85;4.50;;;8.10;99.90;;;;;;5113240;27;20027;-74
2021/01/12 06:54:48;;;;;;;18.17;4.13;;;8.10;99.90;;;;;;5113114;27;20156;-73
2021/01/12 06:57:15;;;;;;;13.40;2.97;;;8.00;99.90;;;;;;5103700;28;20040;-73
2021/01/12 06:59:45;;;;;;;12.13;2.63;;;8.00;99.90;;;;;;5117499;27;20027;-74
2021/01/12 07:02:31;;;;;;;13.32;1.85;;;7.90;99.90;;;;;;5119254;27;20508;-73
2021/01/12 07:05:11;;;;;;;9.68;1.00;;;7.80;99.90;;;;;;5122112;27;20035;-73
2021/01/12 07:07:46;;;;;;;6.28;1.45;;;7.80;99.90;;;;;;5122007;27;20483;-72
2021/01/12 07:10:17;;;;;;;11.07;1.20;;;7.80;99.90;;;;;;5126685;27;20023;-74
2021/01/12 07:12:44;;;;;;;3.47;0.98;;;7.80;99.90;;;;;;5119156;27;20426;-74
2021/01/12 07:15:16;;;;;;;14.45;2.10;;;7.80;99.90;;;;;;5125766;27;20097;-74
2021/01/12 07:17:45;;;;;;;8.75;1.20;;;7.80;99.90;;;;;;5118675;27;20497;-73
2021/01/12 07:20:19;;;;;;;8.90;1.50;;;7.70;99.90;;;;;;5126638;27;20107;-74
2021/01/12 07:23:04;;;;;;;15.38;1.50;;;7.70;99.90;;;;;;5125113;27;20534;-72
2021/01/12 07:25:36;;;;;;;14.90;2.40;;;7.70;99.90;;;;;;5125718;27;20123;-74
2021/01/12 07:28:07;;;;;;;7.15;1.33;;;7.70;99.90;;;;;;5121732;27;20019;-73
2021/01/12 07:30:36;;;;;;;10.55;1.45;;;7.60;99.90;;;;;;5111988;27;20123;-76
2021/01/12 07:33:06;;;;;;;8.98;1.75;;;7.70;99.90;;;;;;5112780;27;20473;-73
2021/01/12 07:35:34;;;;;;;10.85;2.00;;;7.60;99.90;;;;;;5118387;27;20059;-74
2021/01/12 07:38:01;;;;;;;7.05;1.38;;;7.70;99.90;;;;;;5115424;27;20051;-74
2021/01/12 07:40:29;;;;;;;13.50;2.08;;;7.70;99.90;;;;;;5121440;27;20020;-74
2021/01/12 07:43:04;;;;;;;8.52;1.60;;;7.70;99.90;;;;;;5119947;27;20027;-72
2021/01/12 07:45:37;;;;;;;8.65;1.58;;;7.70;99.90;;;;;;5105139;27;20029;-72
2021/01/12 07:48:03;;;;;;;2.97;1.50;;;7.60;99.90;;;;;;5120704;27;20559;-74
2021/01/12 07:50:31;;;;;;;8.68;1.80;;;7.70;99.90;;;;;;5114702;27;20152;-75
2021/01/12 07:52:57;;;;;;;7.80;1.27;;;7.70;99.90;;;;;;5118993;27;20027;-75
2021/01/12 07:55:24;;;;;;;6.70;1.48;;;7.70;99.90;;;;;;5100511;27;20491;-73
2021/01/12 07:57:51;;;;;;;3.90;1.92;;;7.70;99.90;;;;;;5110603;27;20047;-74
2021/01/12 08:00:18;;;;;;;7.68;2.30;;;7.70;99.90;;;;;;5125909;27;20353;-73
2021/01/12 08:02:49;;;;;;;6.95;2.25;;;7.70;99.90;;;;;;5101662;27;20093;-74
2021/01/12 08:05:18;;;;;;;6.80;2.28;;;7.60;99.90;;;;;;5116072;27;20038;-74
2021/01/12 08:07:44;;;;;;;4.93;2.17;;;7.70;99.90;;;;;;5114051;27;20090;-74
2021/01/12 08:10:11;;;;;;;15.05;2.50;;;7.60;99.90;;;;;;5124005;27;20039;-70
2021/01/12 08:12:37;;;;;;;10.68;2.08;;;7.60;99.90;;;;;;5125230;27;20027;-75
2021/01/12 08:15:08;;;;;;;9.18;2.17;;;7.60;99.90;;;;;;5110721;27;20050;-75
2021/01/12 08:17:34;;;;;;;9.18;2.33;;;7.70;99.90;;;;;;5120130;27;20038;-72
2021/01/12 08:20:04;;;;;;;4.32;1.95;;;7.70;99.90;;;;;;5124116;27;20039;-74
2021/01/12 08:22:30;;;;;;;7.45;2.05;;;7.70;99.90;;;;;;5116606;27;20134;-74
2021/01/12 08:25:08;;;;;;;9.75;2.50;;;7.60;99.90;;;;;;5124487;27;20177;-74
2021/01/12 08:27:34;;;;;;;15.13;2.50;;;7.50;99.90;;;;;;5102196;27;20080;-72
2021/01/12 08:30:09;;;;;;;7.70;2.85;;;7.30;99.90;;;;;;5111046;27;20032;-74
2021/01/12 08:32:39;;;;;;;13.70;2.30;;;7.10;99.90;;;;;;5117179;27;20680;-74
2021/01/12 08:35:11;;;;;;;11.68;3.17;;;7.00;99.90;;;;;;5124454;27;20039;-75
2021/01/12 08:37:40;;;;;;;8.02;2.10;;;6.90;99.90;;;;;;5112566;27;20085;-72
2021/01/12 08:40:12;;;;;;;3.83;1.70;;;6.80;99.90;;;;;;5114861;27;20028;-73
2021/01/12 08:42:40;;;;;;;8.27;2.72;;;6.80;99.90;;;;;;5108756;28;20028;-75
2021/01/12 08:45:16;;;;;;;7.45;1.98;;;6.80;99.90;;;;;;5091578;28;20115;-74
2021/01/12 08:47:51;;;;;;;8.27;2.10;;;6.70;99.90;;;;;;5108335;28;20051;-74
2021/01/12 08:50:17;;;;;;;12.90;2.88;;;6.60;99.90;;;;;;5101706;28;20035;-74
2021/01/12 08:52:50;;;;;;;8.10;2.53;;;6.60;99.90;;;;;;5109684;28;20509;-75
2021/01/12 08:55:21;;;;;;;10.30;2.58;;;6.60;99.90;;;;;;5092358;28;20480;-74
2021/01/12 08:57:55;;;;;;;8.30;2.10;;;6.60;99.90;;;;;;5121299;27;20034;-74
2021/01/12 09:00:29;;;;;;;15.68;2.65;;;6.60;99.90;;;;;;5120674;27;20104;-71
2021/01/12 09:02:57;;;;;;;10.20;1.88;;;6.60;99.90;;;;;;5098521;27;20031;-71
2021/01/12 09:05:23;;;;;;;8.70;2.10;;;6.60;99.90;;;;;;5120258;27;20368;-75
2021/01/12 09:08:02;;;;;;;11.80;1.42;;;6.50;99.90;;;;;;5110109;28;20040;-75
2021/01/12 09:10:29;;;;;;;5.63;1.45;;;6.50;99.90;;;;;;5097039;28;20078;-73
2021/01/12 09:12:55;;;;;;;8.25;1.40;;;6.60;99.90;;;;;;5123406;27;20053;-73
2021/01/12 09:15:39;;;;;;;6.18;0.93;;;6.60;99.90;;;;;;5123689;27;20468;-75
2021/01/12 09:18:25;;;;;;;7.00;1.45;;;6.60;99.90;;;;;;5108898;28;20131;-75
2021/01/12 09:20:54;;;;;;;11.13;1.67;;;6.70;99.90;;;;;;5097373;28;20153;-74
2021/01/12 09:23:22;;;;;;;7.47;1.80;;;6.70;99.90;;;;;;5109354;28;20481;-74
2021/01/12 09:26:03;;;;;;;16.08;1.63;;;6.80;99.90;;;;;;5110011;28;20175;-73
2021/01/12 09:28:36;;;;;;;10.13;1.08;;;6.80;99.90;;;;;;5109996;28;20030;-74
2021/01/12 09:31:06;;;;;;;8.07;1.55;;;6.80;99.90;;;;;;5110617;28;20034;-72
2021/01/12 09:33:32;;;;;;;14.80;2.33;;;6.80;99.90;;;;;;5110361;28;20466;-72
2021/01/12 09:36:07;;;;;;;9.15;1.40;;;6.80;99.90;;;;;;5110960;28;20106;-76
2021/01/12 09:38:45;;;;;;;13.55;1.58;;;6.80;99.90;;;;;;5111819;28;20484;-74
2021/01/12 09:41:12;;;;;;;9.90;2.13;;;6.80;99.90;;;;;;5103063;28;20072;-76
2021/01/12 09:43:39;;;;;;;15.52;2.00;;;6.80;99.90;;;;;;5115240;28;20035;-73
2021/01/12 09:46:05;;;;;;;8.85;1.23;;;6.80;99.90;;;;;;5114874;27;20034;-73
2021/01/12 09:48:31;;;;;;;9.43;1.27;;;6.80;99.90;;;;;;5114677;28;20066;-75
2021/01/12 09:50:57;;;;;;;15.55;2.28;;;6.80;99.90;;;;;;5115753;27;20099;-74
2021/01/12 09:53:29;;;;;;;7.13;1.25;;;6.80;99.90;;;;;;5113555;27;20471;-74
2021/01/12 09:55:58;;;;;;;;;;;6.80;99.90;;;;;;5111560;27;20035;-73
2021/01/12 09:58:24;;;;;;;17.80;1.23;;;6.90;99.90;;;;;;5113207;27;19914;-75
2021/01/12 10:00:49;;;;;;;11.95;1.60;;;6.90;99.90;;;;;;5117905;27;20027;-75
2021/01/12 10:03:15;;;;;;;11.30;1.67;;;6.90;99.90;;;;;;5117566;27;20161;-76
2021/01/12 10:05:41;;;;;;;10.23;1.00;;;6.80;99.90;;;;;;5115810;27;20043;-74
2021/01/12 10:08:08;;;;;;;8.40;1.35;;;6.70;99.90;;;;;;5110845;28;20027;-71
2021/01/12 10:10:34;;;;;;;12.30;1.35;;;6.50;99.90;;;;;;5102823;28;20042;-75
2021/01/12 10:13:00;;;;;;;4.20;0.73;;;6.40;99.90;;;;;;5113615;28;20091;-73
2021/01/12 10:15:26;;;;;;;5.88;0.95;;;6.20;99.90;;;;;;5114776;28;20020;-73
2021/01/12 10:17:52;;;;;;;12.18;1.48;;;6.20;99.90;;;;;;5126994;27;20493;-75
2021/01/12 10:20:17;;;;;;;7.47;1.00;;;6.10;99.90;;;;;;5119894;27;20038;-73
2021/01/12 10:22:43;;;;;;;4.68;0.95;;;6.10;99.90;;;;;;5117192;27;20106;-77
2021/01/12 10:25:09;;;;;;;5.07;1.20;;;6.10;99.90;;;;;;5114851;27;20036;-71
2021/01/12 10:27:38;;;;;;;9.50;1.23;;;6.10;99.90;;;;;;5120350;27;20039;-74
2021/01/12 10:30:05;;;;;;;8.40;1.50;;;6.20;99.90;;;;;;5118175;27;20038;-73
2021/01/12 10:32:31;;;;;;;6.90;1.75;;;6.10;99.90;;;;;;5121219;27;20051;-73
2021/01/12 10:34:57;;;;;;;15.98;1.20;;;6.20;99.90;;;;;;5120057;27;20034;-74
2021/01/12 10:37:23;;;;;;;12.30;1.30;;;6.10;99.90;;;;;;5113491;27;20460;-73
2021/01/12 10:39:50;;;;;;;10.10;1.63;;;6.10;99.90;;;;;;5120973;27;20522;-75
2021/01/12 10:42:15;;;;;;;10.98;1.67;;;6.20;99.90;;;;;;5096444;28;20085;-75
2021/01/12 10:44:41;;;;;;;10.45;1.48;;;6.20;99.90;;;;;;5112793;28;20460;-73
2021/01/12 10:47:08;;;;;;;7.20;1.17;;;6.30;99.90;;;;;;5109890;28;20035;-72
2021/01/12 10:49:33;;;;;;;7.03;1.30;;;6.40;99.90;;;;;;5111461;28;20019;-74
2021/01/12 10:52:04;;;;;;;11.43;1.85;;;6.40;99.90;;;;;;5112493;27;20027;-75
2021/01/12 10:54:30;;;;;;;3.75;1.00;;;6.40;99.90;;;;;;5110618;28;20103;-75
2021/01/12 10:56:57;;;;;;;4.22;0.85;;;6.60;99.90;;;;;;5093342;28;20173;-77
2021/01/12 10:59:23;;;;;;;8.18;1.73;;;6.50;99.90;;;;;;5109159;27;20031;-74
2021/01/12 11:02:01;;;;;;;9.70;1.50;;;6.60;99.90;;;;;;5111534;28;20027;-75
2021/01/12 11:04:26;;;;;;;4.00;1.08;;;6.50;99.90;;;;;;5099310;27;20013;-71
2021/01/12 11:06:54;;;;;;;9.75;1.48;;;6.50;99.90;;;;;;5105712;28;20097;-73
2021/01/12 11:09:20;;;;;;;13.80;2.13;;;6.40;99.90;;;;;;5115571;27;20027;-72
2021/01/12 11:11:48;;;;;;;10.02;1.55;;;6.20;99.90;;;;;;5097612;28;20038;-74
2021/01/12 11:14:21;;;;;;;9.68;1.17;;;6.10;99.90;;;;;;5089118;28;20570;-72
2021/01/12 11:16:50;;;;;;;6.53;0.80;;;6.00;99.90;;;;;;5110142;28;20027;-72
2021/01/12 11:19:16;;;;;;;12.43;1.38;;;6.00;99.90;;;;;;5101407;27;20067;-74
2021/01/12 11:21:49;;;;;;;12.02;1.13;;;6.10;99.90;;;;;;5131079;27;20111;-73
2021/01/12 11:24:19;;;;;;;17.70;2.08;;;6.10;99.90;;;;;;5092819;28;20063;-73
2021/01/12 11:26:45;;;;;;;6.13;1.55;;;6.30;99.90;;;;;;5111048;28;20027;-74
2021/01/12 11:29:11;;;;;;;14.05;2.50;;;6.40;99.90;;;;;;5112103;28;20036;-73
2021/01/12 11:31:39;;;;;;;8.43;2.25;;;6.50;99.90;;;;;;5111995;28;20023;-72
2021/01/12 11:34:05;;;;;;;7.55;1.17;;;6.70;99.90;;;;;;5107772;28;20135;-72
2021/01/12 11:36:40;;;;;;;13.32;1.88;;;6.70;99.90;;;;;;5112596;28;20811;-71
2021/01/12 11:39:10;;;;;;;11.82;1.15;;;6.60;99.90;;;;;;5111829;28;20020;-74
2021/01/12 11:41:53;;;;;;;8.82;1.50;;;6.60;99.90;;;;;;5110028;28;20015;-74
2021/01/12 11:44:21;;;;;;;8.57;1.40;;;6.50;99.90;;;;;;5108753;28;20043;-76
2021/01/12 11:46:47;;;;;;;8.80;1.40;;;6.50;99.90;;;;;;5110406;28;20122;-72
2021/01/12 11:49:13;;;;;;;13.30;1.10;;;6.50;99.90;;;;;;5111419;28;20445;-74
2021/01/12 11:51:41;;;;;;;10.45;1.30;;;6.80;99.90;;;;;;5111616;28;20111;-73
2021/01/12 11:54:07;;;;;;;10.40;1.30;;;6.60;99.90;;;;;;5127008;27;20515;-75
2021/01/12 11:56:35;;;;;;;16.33;1.58;;;6.60;99.90;;;;;;5125317;27;20031;-75
2021/01/12 11:59:02;;;;;;;9.85;1.50;;;6.50;99.90;;;;;;5122049;27;20429;-76
2021/01/12 12:01:28;;;;;;;8.07;1.00;;;6.50;99.90;;;;;;5114949;28;20023;-73
2021/01/12 12:03:53;;;;;;;8.25;1.33;;;6.40;99.90;;;;;;5132191;27;20133;-73
2021/01/12 12:06:20;;;;;;;10.18;1.27;;;6.40;99.90;;;;;;5124004;27;20591;-73
2021/01/12 12:08:46;;;;;;;7.45;1.15;;;6.30;99.90;;;;;;5106336;28;20471;-75
2021/01/12 12:11:12;;;;;;;4.85;0.90;;;6.30;99.90;;;;;;5113694;28;20024;-73
2021/01/12 12:13:41;;;;;;;8.27;0.77;;;6.20;99.90;;;;;;5135730;27;20050;-73
2021/01/12 12:16:16;;;;;;;2.72;0.68;;;6.20;99.90;;;;;;5143579;27;20027;-72
2021/01/12 12:18:42;;;;;;;9.65;1.10;;;6.40;99.90;;;;;;5141360;27;20146;-73
2021/01/12 12:21:16;;;;;;;13.00;1.30;;;6.80;99.90;;;;;;5142544;27;20091;-74
2021/01/12 12:23:49;;;;;;;8.13;1.38;;;7.10;99.90;;;;;;5087506;27;20405;-64
2021/01/12 12:26:15;;;;;;;7.80;1.52;;;7.20;99.90;;;;;;5090637;28;20090;-63
2021/01/12 12:28:41;;;;;;;5.15;0.93;;;7.40;99.90;;;;;;5090274;28;20028;-66
2021/01/12 12:31:11;;;;;;;7.65;1.00;;;7.50;99.90;;;;;;5087826;28;20024;-64
2021/01/12 12:33:37;;;;;;;7.15;1.23;;;7.50;99.90;;;;;;5087252;28;20020;-64
2021/01/12 12:36:11;;;;;;;7.13;0.80;;;7.30;99.90;;;;;;5075945;28;20012;-63
2021/01/12 12:38:40;;;;;;;7.13;1.13;;;7.00;99.90;;;;;;5089522;28;20422;-63
2021/01/12 12:41:11;;;;;;;8.52;1.40;;;6.90;99.90;;;;;;5075790;28;20024;-64
2021/01/12 12:43:37;;;;;;;7.55;1.58;;;6.80;99.90;;;;;;5087574;28;20103;-64
2021/01/12 12:46:03;;;;;;;11.50;1.38;;;6.60;99.90;;;;;;5074683;28;20078;-64
2021/01/12 12:48:29;;;;;;;9.73;1.58;;;6.40;99.90;;;;;;5101306;28;20012;-63
2021/01/12 12:50:55;;;;;;;11.02;1.23;;;6.40;99.90;;;;;;5077925;28;20035;-64
2021/01/12 12:53:21;;;;;;;14.73;1.20;;;6.30;99.90;;;;;;5082785;28;20025;-63
2021/01/12 12:55:47;;;;;;;7.70;1.23;;;6.30;99.90;;;;;;5079943;28;20028;-64
2021/01/12 12:58:13;;;;;;;7.05;1.50;;;6.50;99.90;;;;;;5081878;28;20020;-64